sensor_id;sensor_type;location;lat;lon;timestamp;P1;durP1;ratioP1;P2;durP2;ratioP2
3589;SDS011;1809;48.470;9.226;2022-09-03T00:00:19;3.67;;;2.00;;
3589;SDS011;1809;48.470;9.226;2022-09-03T00:02:59;2.00;;;1.90;;
3589;SDS011;1809;48.470;9.226;2022-09-03T00:05:47;2.57;;;2.37;;
3589;SDS011;1809;48.470;9.226;2022-09-03T00:08:22;2.00;;;1.90;;
3589;SDS011;1809;48.470;9.226;2022-09-03T00:11:00;5.20;;;2.10;;
3589;SDS011;1809;48.470;9.226;2022-09-03T00:13:35;5.33;;;2.23;;
3589;SDS011;1809;48.470;9.226;2022-09-03T00:16:07;3.50;;;2.23;;
3589;SDS011;1809;48.470;9.226;2022-09-03T00:18:59;6.20;;;2.30;;
3589;SDS011;1809;48.470;9.226;2022-09-03T00:23:52;3.53;;;2.10;;
3589;SDS011;1809;48.470;9.226;2022-09-03T00:26:26;2.33;;;1.87;;
3589;SDS011;1809;48.470;9.226;2022-09-03T00:31:31;2.80;;;2.10;;
3589;SDS011;1809;48.470;9.226;2022-09-03T00:34:08;2.40;;;2.20;;
3589;SDS011;1809;48.470;9.226;2022-09-03T00:36:51;2.90;;;1.73;;
3589;SDS011;1809;48.470;9.226;2022-09-03T00:39:18;3.73;;;2.47;;
3589;SDS011;1809;48.470;9.226;2022-09-03T00:44:52;2.17;;;2.07;;
3589;SDS011;1809;48.470;9.226;2022-09-03T01:01:49;2.70;;;2.57;;
3589;SDS011;1809;48.470;9.226;2022-09-03T01:07:03;4.10;;;2.07;;
3589;SDS011;1809;48.470;9.226;2022-09-03T01:28:17;2.60;;;2.40;;
3589;SDS011;1809;48.470;9.226;2022-09-03T01:31:04;3.27;;;2.37;;
3589;SDS011;1809;48.470;9.226;2022-09-03T01:34:12;2.70;;;2.20;;
3589;SDS011;1809;48.470;9.226;2022-09-03T01:36:59;2.60;;;2.50;;
3589;SDS011;1809;48.470;9.226;2022-09-03T01:47:59;3.30;;;2.43;;
3589;SDS011;1809;48.470;9.226;2022-09-03T01:54:15;2.70;;;2.47;;
3589;SDS011;1809;48.470;9.226;2022-09-03T01:59:58;2.27;;;2.17;;
3589;SDS011;1809;48.470;9.226;2022-09-03T02:02:28;2.67;;;2.50;;
3589;SDS011;1809;48.470;9.226;2022-09-03T02:07:47;6.77;;;2.50;;
3589;SDS011;1809;48.470;9.226;2022-09-03T02:11:03;2.60;;;2.40;;
3589;SDS011;1809;48.470;9.226;2022-09-03T02:13:10;5.10;;;2.33;;
3589;SDS011;1809;48.470;9.226;2022-09-03T02:15:41;2.73;;;2.63;;
3589;SDS011;1809;48.470;9.226;2022-09-03T02:18:18;3.00;;;2.80;;
3589;SDS011;1809;48.470;9.226;2022-09-03T02:20:47;3.03;;;2.83;;
3589;SDS011;1809;48.470;9.226;2022-09-03T02:23:14;2.57;;;2.37;;
3589;SDS011;1809;48.470;9.226;2022-09-03T02:25:42;2.60;;;2.50;;
3589;SDS011;1809;48.470;9.226;2022-09-03T02:28:11;2.80;;;2.60;;
3589;SDS011;1809;48.470;9.226;2022-09-03T02:30:39;2.87;;;2.70;;
3589;SDS011;1809;48.470;9.226;2022-09-03T02:33:04;2.40;;;2.30;;
3589;SDS011;1809;48.470;9.226;2022-09-03T02:35:30;4.70;;;2.90;;
3589;SDS011;1809;48.470;9.226;2022-09-03T02:37:55;2.60;;;2.50;;
3589;SDS011;1809;48.470;9.226;2022-09-03T02:40:20;4.00;;;3.27;;
3589;SDS011;1809;48.470;9.226;2022-09-03T02:42:46;3.33;;;3.13;;
3589;SDS011;1809;48.470;9.226;2022-09-03T02:45:15;8.10;;;3.20;;
3589;SDS011;1809;48.470;9.226;2022-09-03T02:47:49;3.50;;;3.30;;
3589;SDS011;1809;48.470;9.226;2022-09-03T02:50:17;3.33;;;3.13;;
3589;SDS011;1809;48.470;9.226;2022-09-03T02:52:43;3.10;;;3.00;;
3589;SDS011;1809;48.470;9.226;2022-09-03T02:55:09;3.53;;;3.33;;
3589;SDS011;1809;48.470;9.226;2022-09-03T02:57:34;3.47;;;3.17;;
3589;SDS011;1809;48.470;9.226;2022-09-03T02:59:59;5.20;;;3.57;;
3589;SDS011;1809;48.470;9.226;2022-09-03T03:02:25;3.30;;;3.00;;
3589;SDS011;1809;48.470;9.226;2022-09-03T03:04:50;4.10;;;3.80;;
3589;SDS011;1809;48.470;9.226;2022-09-03T03:07:15;4.57;;;4.17;;
3589;SDS011;1809;48.470;9.226;2022-09-03T03:09:41;4.13;;;3.87;;
3589;SDS011;1809;48.470;9.226;2022-09-03T03:12:06;4.13;;;3.73;;
3589;SDS011;1809;48.470;9.226;2022-09-03T03:14:33;3.50;;;3.30;;
3589;SDS011;1809;48.470;9.226;2022-09-03T03:16:59;8.63;;;3.40;;
3589;SDS011;1809;48.470;9.226;2022-09-03T03:19:24;7.43;;;3.37;;
3589;SDS011;1809;48.470;9.226;2022-09-03T03:21:50;3.70;;;3.50;;
3589;SDS011;1809;48.470;9.226;2022-09-03T03:24:15;6.13;;;3.83;;
3589;SDS011;1809;48.470;9.226;2022-09-03T03:26:40;3.37;;;3.00;;
3589;SDS011;1809;48.470;9.226;2022-09-03T03:29:06;3.63;;;3.43;;
3589;SDS011;1809;48.470;9.226;2022-09-03T03:31:31;4.00;;;3.70;;
3589;SDS011;1809;48.470;9.226;2022-09-03T03:33:58;4.83;;;3.90;;
3589;SDS011;1809;48.470;9.226;2022-09-03T03:36:26;3.70;;;3.50;;
3589;SDS011;1809;48.470;9.226;2022-09-03T03:38:55;3.03;;;2.90;;
3589;SDS011;1809;48.470;9.226;2022-09-03T03:41:23;5.00;;;3.00;;
3589;SDS011;1809;48.470;9.226;2022-09-03T03:43:55;3.30;;;3.10;;
3589;SDS011;1809;48.470;9.226;2022-09-03T03:46:22;2.93;;;2.83;;
3589;SDS011;1809;48.470;9.226;2022-09-03T03:48:49;3.47;;;3.23;;
3589;SDS011;1809;48.470;9.226;2022-09-03T03:51:15;3.97;;;3.53;;
3589;SDS011;1809;48.470;9.226;2022-09-03T03:53:41;5.70;;;4.17;;
3589;SDS011;1809;48.470;9.226;2022-09-03T03:56:08;4.60;;;3.30;;
3589;SDS011;1809;48.470;9.226;2022-09-03T03:58:36;6.23;;;4.17;;
3589;SDS011;1809;48.470;9.226;2022-09-03T04:01:05;3.50;;;3.20;;
3589;SDS011;1809;48.470;9.226;2022-09-03T04:03:32;4.43;;;3.53;;
3589;SDS011;1809;48.470;9.226;2022-09-03T04:05:58;3.80;;;3.00;;
3589;SDS011;1809;48.470;9.226;2022-09-03T04:08:25;5.00;;;3.57;;
3589;SDS011;1809;48.470;9.226;2022-09-03T04:10:51;5.07;;;3.60;;
3589;SDS011;1809;48.470;9.226;2022-09-03T04:13:16;6.23;;;3.30;;
3589;SDS011;1809;48.470;9.226;2022-09-03T04:15:42;3.40;;;3.20;;
3589;SDS011;1809;48.470;9.226;2022-09-03T04:18:07;6.30;;;3.93;;
3589;SDS011;1809;48.470;9.226;2022-09-03T04:20:36;4.17;;;3.77;;
3589;SDS011;1809;48.470;9.226;2022-09-03T04:23:02;3.63;;;3.33;;
3589;SDS011;1809;48.470;9.226;2022-09-03T04:25:30;4.20;;;3.90;;
3589;SDS011;1809;48.470;9.226;2022-09-03T04:27:55;3.70;;;3.30;;
3589;SDS011;1809;48.470;9.226;2022-09-03T04:30:21;3.20;;;3.10;;
3589;SDS011;1809;48.470;9.226;2022-09-03T04:32:49;3.80;;;3.60;;
3589;SDS011;1809;48.470;9.226;2022-09-03T04:35:24;3.53;;;3.23;;
3589;SDS011;1809;48.470;9.226;2022-09-03T04:37:56;4.17;;;3.50;;
3589;SDS011;1809;48.470;9.226;2022-09-03T04:40:21;3.63;;;3.33;;
3589;SDS011;1809;48.470;9.226;2022-09-03T04:42:47;4.70;;;3.30;;
3589;SDS011;1809;48.470;9.226;2022-09-03T04:45:12;3.70;;;3.50;;
3589;SDS011;1809;48.470;9.226;2022-09-03T04:47:42;3.60;;;3.30;;
3589;SDS011;1809;48.470;9.226;2022-09-03T04:50:10;3.80;;;3.40;;
3589;SDS011;1809;48.470;9.226;2022-09-03T04:52:36;4.60;;;3.90;;
3589;SDS011;1809;48.470;9.226;2022-09-03T04:55:02;9.40;;;4.10;;
3589;SDS011;1809;48.470;9.226;2022-09-03T04:57:28;4.27;;;3.97;;
3589;SDS011;1809;48.470;9.226;2022-09-03T04:59:58;3.87;;;3.60;;
3589;SDS011;1809;48.470;9.226;2022-09-03T05:02:24;3.73;;;3.10;;
3589;SDS011;1809;48.470;9.226;2022-09-03T05:04:49;3.60;;;3.40;;
3589;SDS011;1809;48.470;9.226;2022-09-03T05:07:16;4.07;;;3.77;;
3589;SDS011;1809;48.470;9.226;2022-09-03T05:09:41;3.93;;;3.50;;
3589;SDS011;1809;48.470;9.226;2022-09-03T05:12:07;3.43;;;3.10;;
3589;SDS011;1809;48.470;9.226;2022-09-03T05:14:32;3.50;;;3.20;;
3589;SDS011;1809;48.470;9.226;2022-09-03T05:16:57;3.80;;;3.50;;
3589;SDS011;1809;48.470;9.226;2022-09-03T05:19:23;5.00;;;4.60;;
3589;SDS011;1809;48.470;9.226;2022-09-03T05:21:48;3.00;;;2.80;;
3589;SDS011;1809;48.470;9.226;2022-09-03T05:24:14;4.53;;;4.23;;
3589;SDS011;1809;48.470;9.226;2022-09-03T05:26:39;4.77;;;4.40;;
3589;SDS011;1809;48.470;9.226;2022-09-03T05:29:06;4.40;;;4.10;;
3589;SDS011;1809;48.470;9.226;2022-09-03T05:31:32;5.00;;;4.50;;
3589;SDS011;1809;48.470;9.226;2022-09-03T05:34:00;5.37;;;3.90;;
3589;SDS011;1809;48.470;9.226;2022-09-03T05:36:28;5.90;;;4.43;;
3589;SDS011;1809;48.470;9.226;2022-09-03T05:38:56;4.33;;;4.13;;
3589;SDS011;1809;48.470;9.226;2022-09-03T05:41:22;4.00;;;3.80;;
3589;SDS011;1809;48.470;9.226;2022-09-03T05:43:48;4.37;;;3.97;;
3589;SDS011;1809;48.470;9.226;2022-09-03T05:46:20;4.90;;;4.50;;
3589;SDS011;1809;48.470;9.226;2022-09-03T05:48:51;5.10;;;4.40;;
3589;SDS011;1809;48.470;9.226;2022-09-03T05:51:17;5.50;;;5.10;;
3589;SDS011;1809;48.470;9.226;2022-09-03T05:53:43;5.13;;;4.27;;
3589;SDS011;1809;48.470;9.226;2022-09-03T05:56:12;6.67;;;4.63;;
3589;SDS011;1809;48.470;9.226;2022-09-03T05:58:42;3.80;;;3.50;;
3589;SDS011;1809;48.470;9.226;2022-09-03T06:01:12;4.20;;;3.87;;
3589;SDS011;1809;48.470;9.226;2022-09-03T06:03:38;4.17;;;3.97;;
3589;SDS011;1809;48.470;9.226;2022-09-03T06:06:05;8.87;;;4.10;;
3589;SDS011;1809;48.470;9.226;2022-09-03T06:08:31;3.80;;;3.50;;
3589;SDS011;1809;48.470;9.226;2022-09-03T06:10:57;4.73;;;4.33;;
3589;SDS011;1809;48.470;9.226;2022-09-03T06:13:23;4.40;;;4.00;;
3589;SDS011;1809;48.470;9.226;2022-09-03T06:15:49;5.33;;;3.67;;
3589;SDS011;1809;48.470;9.226;2022-09-03T06:18:14;4.47;;;4.10;;
3589;SDS011;1809;48.470;9.226;2022-09-03T06:20:39;3.33;;;3.03;;
3589;SDS011;1809;48.470;9.226;2022-09-03T06:23:05;3.50;;;3.30;;
3589;SDS011;1809;48.470;9.226;2022-09-03T06:25:30;4.33;;;3.40;;
3589;SDS011;1809;48.470;9.226;2022-09-03T06:27:56;5.43;;;4.10;;
3589;SDS011;1809;48.470;9.226;2022-09-03T06:30:21;3.97;;;3.77;;
3589;SDS011;1809;48.470;9.226;2022-09-03T06:32:48;4.03;;;3.73;;
3589;SDS011;1809;48.470;9.226;2022-09-03T06:35:14;3.90;;;3.37;;
3589;SDS011;1809;48.470;9.226;2022-09-03T06:37:40;3.73;;;3.50;;
3589;SDS011;1809;48.470;9.226;2022-09-03T06:40:09;5.63;;;3.80;;
3589;SDS011;1809;48.470;9.226;2022-09-03T06:42:40;3.93;;;3.60;;
3589;SDS011;1809;48.470;9.226;2022-09-03T06:45:07;4.47;;;3.20;;
3589;SDS011;1809;48.470;9.226;2022-09-03T06:47:33;4.60;;;4.30;;
3589;SDS011;1809;48.470;9.226;2022-09-03T06:49:59;9.40;;;8.40;;
3589;SDS011;1809;48.470;9.226;2022-09-03T06:52:26;8.17;;;7.50;;
3589;SDS011;1809;48.470;9.226;2022-09-03T06:54:51;6.50;;;5.80;;
3589;SDS011;1809;48.470;9.226;2022-09-03T06:57:17;4.53;;;4.23;;
3589;SDS011;1809;48.470;9.226;2022-09-03T06:59:42;4.60;;;4.30;;
3589;SDS011;1809;48.470;9.226;2022-09-03T07:02:08;4.17;;;3.87;;
3589;SDS011;1809;48.470;9.226;2022-09-03T07:04:34;3.97;;;3.77;;
3589;SDS011;1809;48.470;9.226;2022-09-03T07:06:59;4.10;;;3.90;;
3589;SDS011;1809;48.470;9.226;2022-09-03T07:09:26;4.60;;;4.30;;
3589;SDS011;1809;48.470;9.226;2022-09-03T07:11:51;5.90;;;4.03;;
3589;SDS011;1809;48.470;9.226;2022-09-03T07:14:17;6.23;;;3.50;;
3589;SDS011;1809;48.470;9.226;2022-09-03T07:16:44;3.77;;;3.57;;
3589;SDS011;1809;48.470;9.226;2022-09-03T07:19:10;5.30;;;3.73;;
3589;SDS011;1809;48.470;9.226;2022-09-03T07:21:37;3.47;;;3.17;;
3589;SDS011;1809;48.470;9.226;2022-09-03T07:24:03;3.87;;;3.20;;
3589;SDS011;1809;48.470;9.226;2022-09-03T07:26:30;3.20;;;3.10;;
3589;SDS011;1809;48.470;9.226;2022-09-03T07:28:57;4.53;;;4.20;;
3589;SDS011;1809;48.470;9.226;2022-09-03T07:33:59;3.67;;;3.43;;
3589;SDS011;1809;48.470;9.226;2022-09-03T07:36:28;3.50;;;3.30;;
3589;SDS011;1809;48.470;9.226;2022-09-03T07:38:54;3.23;;;3.13;;
3589;SDS011;1809;48.470;9.226;2022-09-03T07:41:21;2.80;;;2.70;;
3589;SDS011;1809;48.470;9.226;2022-09-03T07:43:47;3.90;;;3.70;;
3589;SDS011;1809;48.470;9.226;2022-09-03T07:46:14;3.97;;;3.77;;
3589;SDS011;1809;48.470;9.226;2022-09-03T07:48:52;7.87;;;2.93;;
3589;SDS011;1809;48.470;9.226;2022-09-03T07:51:19;3.33;;;3.23;;
3589;SDS011;1809;48.470;9.226;2022-09-03T07:53:46;5.60;;;3.53;;
3589;SDS011;1809;48.470;9.226;2022-09-03T07:56:13;4.37;;;3.50;;
3589;SDS011;1809;48.470;9.226;2022-09-03T07:58:39;26.63;;;5.60;;
3589;SDS011;1809;48.470;9.226;2022-09-03T08:01:10;18.53;;;3.63;;
3589;SDS011;1809;48.470;9.226;2022-09-03T08:03:36;6.30;;;3.20;;
3589;SDS011;1809;48.470;9.226;2022-09-03T08:06:06;6.60;;;3.60;;
3589;SDS011;1809;48.470;9.226;2022-09-03T08:08:32;3.50;;;3.07;;
3589;SDS011;1809;48.470;9.226;2022-09-03T08:11:07;3.33;;;3.13;;
3589;SDS011;1809;48.470;9.226;2022-09-03T08:13:41;6.20;;;3.30;;
3589;SDS011;1809;48.470;9.226;2022-09-03T08:16:12;4.40;;;2.97;;
3589;SDS011;1809;48.470;9.226;2022-09-03T08:18:40;3.27;;;3.07;;
3589;SDS011;1809;48.470;9.226;2022-09-03T08:21:06;4.03;;;2.80;;
3589;SDS011;1809;48.470;9.226;2022-09-03T08:23:39;2.70;;;2.50;;
3589;SDS011;1809;48.470;9.226;2022-09-03T08:26:05;2.27;;;2.17;;
3589;SDS011;1809;48.470;9.226;2022-09-03T08:28:31;2.30;;;2.20;;
3589;SDS011;1809;48.470;9.226;2022-09-03T08:31:03;2.30;;;2.20;;
3589;SDS011;1809;48.470;9.226;2022-09-03T08:33:29;2.37;;;2.27;;
3589;SDS011;1809;48.470;9.226;2022-09-03T08:36:05;1.87;;;1.77;;
3589;SDS011;1809;48.470;9.226;2022-09-03T08:38:33;2.50;;;2.30;;
3589;SDS011;1809;48.470;9.226;2022-09-03T08:43:35;2.43;;;2.23;;
3589;SDS011;1809;48.470;9.226;2022-09-03T08:46:14;3.27;;;3.00;;
3589;SDS011;1809;48.470;9.226;2022-09-03T08:48:40;2.00;;;1.90;;
3589;SDS011;1809;48.470;9.226;2022-09-03T08:51:06;2.80;;;2.70;;
3589;SDS011;1809;48.470;9.226;2022-09-03T08:56:09;2.20;;;2.10;;
3589;SDS011;1809;48.470;9.226;2022-09-03T08:58:38;1.80;;;1.70;;
3589;SDS011;1809;48.470;9.226;2022-09-03T09:03:48;2.13;;;2.03;;
3589;SDS011;1809;48.470;9.226;2022-09-03T09:06:38;1.50;;;1.50;;
3589;SDS011;1809;48.470;9.226;2022-09-03T09:12:30;1.87;;;1.77;;
3589;SDS011;1809;48.470;9.226;2022-09-03T09:18:02;1.60;;;1.60;;
3589;SDS011;1809;48.470;9.226;2022-09-03T09:20:47;3.23;;;3.00;;
3589;SDS011;1809;48.470;9.226;2022-09-03T09:23:14;2.80;;;2.60;;
3589;SDS011;1809;48.470;9.226;2022-09-03T09:26:06;5.10;;;3.10;;
3589;SDS011;1809;48.470;9.226;2022-09-03T09:28:36;3.70;;;3.40;;
3589;SDS011;1809;48.470;9.226;2022-09-03T09:31:03;4.20;;;3.90;;
3589;SDS011;1809;48.470;9.226;2022-09-03T09:33:36;2.63;;;2.40;;
3589;SDS011;1809;48.470;9.226;2022-09-03T09:36:02;3.17;;;2.97;;
3589;SDS011;1809;48.470;9.226;2022-09-03T09:38:34;6.30;;;3.23;;
3589;SDS011;1809;48.470;9.226;2022-09-03T09:41:14;3.47;;;3.27;;
3589;SDS011;1809;48.470;9.226;2022-09-03T09:43:41;4.13;;;3.47;;
3589;SDS011;1809;48.470;9.226;2022-09-03T09:46:14;2.60;;;2.50;;
3589;SDS011;1809;48.470;9.226;2022-09-03T09:48:52;3.67;;;3.37;;
3589;SDS011;1809;48.470;9.226;2022-09-03T09:51:20;3.50;;;3.30;;
3589;SDS011;1809;48.470;9.226;2022-09-03T09:53:47;3.40;;;3.23;;
3589;SDS011;1809;48.470;9.226;2022-09-03T09:56:24;4.17;;;3.57;;
3589;SDS011;1809;48.470;9.226;2022-09-03T09:59:00;4.03;;;3.63;;
3589;SDS011;1809;48.470;9.226;2022-09-03T10:01:30;3.23;;;3.03;;
3589;SDS011;1809;48.470;9.226;2022-09-03T10:03:57;3.10;;;2.97;;
3589;SDS011;1809;48.470;9.226;2022-09-03T10:06:33;3.43;;;3.23;;
3589;SDS011;1809;48.470;9.226;2022-09-03T10:09:18;6.43;;;3.07;;
3589;SDS011;1809;48.470;9.226;2022-09-03T10:12:12;7.90;;;3.50;;
3589;SDS011;1809;48.470;9.226;2022-09-03T10:14:55;3.63;;;3.40;;
3589;SDS011;1809;48.470;9.226;2022-09-03T10:17:34;5.30;;;4.60;;
3589;SDS011;1809;48.470;9.226;2022-09-03T10:20:23;4.97;;;4.23;;
3589;SDS011;1809;48.470;9.226;2022-09-03T10:23:06;3.87;;;3.67;;
3589;SDS011;1809;48.470;9.226;2022-09-03T10:28:17;3.67;;;3.40;;
3589;SDS011;1809;48.470;9.226;2022-09-03T10:30:55;3.73;;;3.40;;
3589;SDS011;1809;48.470;9.226;2022-09-03T10:33:50;3.10;;;3.00;;
3589;SDS011;1809;48.470;9.226;2022-09-03T10:41:53;3.73;;;3.53;;
3589;SDS011;1809;48.470;9.226;2022-09-03T10:50:36;3.53;;;3.30;;
3589;SDS011;1809;48.470;9.226;2022-09-03T10:55:48;3.10;;;2.90;;
3589;SDS011;1809;48.470;9.226;2022-09-03T11:06:58;3.63;;;3.33;;
3589;SDS011;1809;48.470;9.226;2022-09-03T11:14:52;3.57;;;3.37;;
3589;SDS011;1809;48.470;9.226;2022-09-03T11:17:27;2.90;;;2.80;;
3589;SDS011;1809;48.470;9.226;2022-09-03T11:22:35;2.97;;;2.83;;
3589;SDS011;1809;48.470;9.226;2022-09-03T11:25:03;3.50;;;3.30;;
3589;SDS011;1809;48.470;9.226;2022-09-03T11:27:43;4.10;;;3.80;;
3589;SDS011;1809;48.470;9.226;2022-09-03T11:30:46;3.97;;;3.67;;
3589;SDS011;1809;48.470;9.226;2022-09-03T11:33:13;6.10;;;4.10;;
3589;SDS011;1809;48.470;9.226;2022-09-03T11:35:44;6.13;;;5.63;;
3589;SDS011;1809;48.470;9.226;2022-09-03T11:38:18;6.93;;;6.33;;
3589;SDS011;1809;48.470;9.226;2022-09-03T11:40:56;5.97;;;5.47;;
3589;SDS011;1809;48.470;9.226;2022-09-03T11:59:34;3.80;;;1.33;;
3589;SDS011;1809;48.470;9.226;2022-09-03T12:02:05;2.30;;;1.53;;
3589;SDS011;1809;48.470;9.226;2022-09-03T12:04:49;2.70;;;0.90;;
3589;SDS011;1809;48.470;9.226;2022-09-03T12:07:32;1.40;;;0.97;;
3589;SDS011;1809;48.470;9.226;2022-09-03T12:18:30;5.33;;;2.90;;
3589;SDS011;1809;48.470;9.226;2022-09-03T12:21:00;2.00;;;1.43;;
3589;SDS011;1809;48.470;9.226;2022-09-03T12:23:30;5.63;;;2.00;;
3589;SDS011;1809;48.470;9.226;2022-09-03T12:26:04;4.70;;;1.40;;
3589;SDS011;1809;48.470;9.226;2022-09-03T12:28:34;2.77;;;1.50;;
3589;SDS011;1809;48.470;9.226;2022-09-03T12:31:05;4.73;;;1.20;;
3589;SDS011;1809;48.470;9.226;2022-09-03T12:33:46;1.47;;;1.37;;
3589;SDS011;1809;48.470;9.226;2022-09-03T12:36:13;2.03;;;1.30;;
3589;SDS011;1809;48.470;9.226;2022-09-03T12:38:40;4.10;;;1.50;;
3589;SDS011;1809;48.470;9.226;2022-09-03T12:41:17;2.07;;;1.00;;
3589;SDS011;1809;48.470;9.226;2022-09-03T12:43:51;1.30;;;1.20;;
3589;SDS011;1809;48.470;9.226;2022-09-03T12:46:21;2.83;;;1.33;;
3589;SDS011;1809;48.470;9.226;2022-09-03T12:48:52;2.00;;;1.77;;
3589;SDS011;1809;48.470;9.226;2022-09-03T12:51:18;6.40;;;1.80;;
3589;SDS011;1809;48.470;9.226;2022-09-03T12:53:43;1.70;;;1.60;;
3589;SDS011;1809;48.470;9.226;2022-09-03T12:56:10;2.90;;;1.50;;
3589;SDS011;1809;48.470;9.226;2022-09-03T12:58:37;1.70;;;1.60;;
3589;SDS011;1809;48.470;9.226;2022-09-03T13:01:11;2.40;;;1.23;;
3589;SDS011;1809;48.470;9.226;2022-09-03T13:03:46;1.63;;;1.10;;
3589;SDS011;1809;48.470;9.226;2022-09-03T13:06:23;1.33;;;1.23;;
3589;SDS011;1809;48.470;9.226;2022-09-03T13:08:59;2.50;;;0.97;;
3589;SDS011;1809;48.470;9.226;2022-09-03T13:11:27;1.17;;;1.00;;
3589;SDS011;1809;48.470;9.226;2022-09-03T13:14:07;2.20;;;1.00;;
3589;SDS011;1809;48.470;9.226;2022-09-03T13:21:59;3.63;;;1.40;;
3589;SDS011;1809;48.470;9.226;2022-09-03T13:30:04;1.23;;;1.10;;
3589;SDS011;1809;48.470;9.226;2022-09-03T13:43:51;1.20;;;0.80;;
3589;SDS011;1809;48.470;9.226;2022-09-03T13:46:29;2.97;;;1.17;;
3589;SDS011;1809;48.470;9.226;2022-09-03T13:52:01;1.90;;;0.90;;
3589;SDS011;1809;48.470;9.226;2022-09-03T13:54:38;0.60;;;0.60;;
3589;SDS011;1809;48.470;9.226;2022-09-03T13:57:25;0.80;;;0.80;;
3589;SDS011;1809;48.470;9.226;2022-09-03T14:00:10;1.53;;;1.00;;
3589;SDS011;1809;48.470;9.226;2022-09-03T14:11:26;0.80;;;0.80;;
3589;SDS011;1809;48.470;9.226;2022-09-03T14:14:11;0.80;;;0.80;;
3589;SDS011;1809;48.470;9.226;2022-09-03T14:16:47;1.03;;;0.90;;
3589;SDS011;1809;48.470;9.226;2022-09-03T14:22:08;1.47;;;1.10;;
3589;SDS011;1809;48.470;9.226;2022-09-03T14:24:48;0.80;;;0.80;;
3589;SDS011;1809;48.470;9.226;2022-09-03T14:27:22;0.80;;;0.80;;
3589;SDS011;1809;48.470;9.226;2022-09-03T14:29:53;1.73;;;0.80;;
3589;SDS011;1809;48.470;9.226;2022-09-03T14:38:01;1.00;;;0.90;;
3589;SDS011;1809;48.470;9.226;2022-09-03T14:41:00;0.70;;;0.70;;
3589;SDS011;1809;48.470;9.226;2022-09-03T14:46:51;0.70;;;0.70;;
3589;SDS011;1809;48.470;9.226;2022-09-03T14:49:22;0.80;;;0.80;;
3589;SDS011;1809;48.470;9.226;2022-09-03T15:00:13;1.30;;;1.23;;
3589;SDS011;1809;48.470;9.226;2022-09-03T15:10:47;1.13;;;1.03;;
3589;SDS011;1809;48.470;9.226;2022-09-03T15:13:20;0.90;;;0.90;;
3589;SDS011;1809;48.470;9.226;2022-09-03T15:21:04;1.30;;;1.20;;
3589;SDS011;1809;48.470;9.226;2022-09-03T15:29:09;1.43;;;0.97;;
3589;SDS011;1809;48.470;9.226;2022-09-03T15:34:37;1.27;;;1.17;;
3589;SDS011;1809;48.470;9.226;2022-09-03T15:37:12;1.53;;;1.20;;
3589;SDS011;1809;48.470;9.226;2022-09-03T15:39:45;1.23;;;1.13;;
3589;SDS011;1809;48.470;9.226;2022-09-03T15:42:26;1.00;;;1.00;;
3589;SDS011;1809;48.470;9.226;2022-09-03T15:44:53;0.90;;;0.90;;
3589;SDS011;1809;48.470;9.226;2022-09-03T15:55:49;1.33;;;1.23;;
3589;SDS011;1809;48.470;9.226;2022-09-03T15:58:37;1.07;;;1.07;;
3589;SDS011;1809;48.470;9.226;2022-09-03T16:03:57;1.00;;;1.00;;
3589;SDS011;1809;48.470;9.226;2022-09-03T16:12:05;1.47;;;1.10;;
3589;SDS011;1809;48.470;9.226;2022-09-03T16:14:57;1.23;;;1.13;;
3589;SDS011;1809;48.470;9.226;2022-09-03T16:20:20;2.00;;;1.27;;
3589;SDS011;1809;48.470;9.226;2022-09-03T16:25:24;3.40;;;1.13;;
3589;SDS011;1809;48.470;9.226;2022-09-03T16:40:16;1.67;;;1.27;;
3589;SDS011;1809;48.470;9.226;2022-09-03T16:48:52;1.30;;;1.20;;
3589;SDS011;1809;48.470;9.226;2022-09-03T16:56:23;1.70;;;1.60;;
3589;SDS011;1809;48.470;9.226;2022-09-03T16:59:30;2.13;;;1.83;;
3589;SDS011;1809;48.470;9.226;2022-09-03T17:24:08;2.17;;;1.97;;
3589;SDS011;1809;48.470;9.226;2022-09-03T17:26:53;1.93;;;1.53;;
3589;SDS011;1809;48.470;9.226;2022-09-03T17:29:33;2.10;;;1.80;;
3589;SDS011;1809;48.470;9.226;2022-09-03T17:35:29;2.17;;;2.07;;
3589;SDS011;1809;48.470;9.226;2022-09-03T17:49:25;2.80;;;2.60;;
3589;SDS011;1809;48.470;9.226;2022-09-03T17:54:44;7.50;;;2.00;;
3589;SDS011;1809;48.470;9.226;2022-09-03T17:57:23;2.70;;;1.80;;
3589;SDS011;1809;48.470;9.226;2022-09-03T18:00:08;2.03;;;1.93;;
3589;SDS011;1809;48.470;9.226;2022-09-03T18:05:18;2.57;;;2.37;;
3589;SDS011;1809;48.470;9.226;2022-09-03T18:07:53;2.83;;;2.37;;
3589;SDS011;1809;48.470;9.226;2022-09-03T18:20:58;2.87;;;2.67;;
3589;SDS011;1809;48.470;9.226;2022-09-03T18:26:57;5.90;;;2.23;;
3589;SDS011;1809;48.470;9.226;2022-09-03T18:29:48;2.23;;;2.13;;
3589;SDS011;1809;48.470;9.226;2022-09-03T18:32:38;4.07;;;2.50;;
3589;SDS011;1809;48.470;9.226;2022-09-03T18:35:23;2.80;;;2.53;;
3589;SDS011;1809;48.470;9.226;2022-09-03T18:38:08;5.53;;;2.20;;
3589;SDS011;1809;48.470;9.226;2022-09-03T18:40:58;4.10;;;3.10;;
3589;SDS011;1809;48.470;9.226;2022-09-03T18:46:58;3.17;;;3.00;;
3589;SDS011;1809;48.470;9.226;2022-09-03T18:49:57;3.27;;;3.07;;
3589;SDS011;1809;48.470;9.226;2022-09-03T18:52:56;3.30;;;2.70;;
3589;SDS011;1809;48.470;9.226;2022-09-03T18:59:26;3.27;;;3.07;;
3589;SDS011;1809;48.470;9.226;2022-09-03T19:08:52;3.83;;;3.60;;
3589;SDS011;1809;48.470;9.226;2022-09-03T19:12:11;3.77;;;3.57;;
3589;SDS011;1809;48.470;9.226;2022-09-03T19:15:07;4.07;;;3.77;;
3589;SDS011;1809;48.470;9.226;2022-09-03T19:18:34;3.80;;;3.50;;
3589;SDS011;1809;48.470;9.226;2022-09-03T19:21:35;4.73;;;3.70;;
3589;SDS011;1809;48.470;9.226;2022-09-03T19:24:40;5.80;;;3.57;;
3589;SDS011;1809;48.470;9.226;2022-09-03T19:27:28;3.60;;;3.30;;
3589;SDS011;1809;48.470;9.226;2022-09-03T19:42:19;5.97;;;3.57;;
3589;SDS011;1809;48.470;9.226;2022-09-03T19:45:25;3.37;;;3.03;;
3589;SDS011;1809;48.470;9.226;2022-09-03T19:54:03;4.27;;;3.50;;
3589;SDS011;1809;48.470;9.226;2022-09-03T19:56:50;4.23;;;3.93;;
3589;SDS011;1809;48.470;9.226;2022-09-03T19:59:38;3.50;;;3.30;;
3589;SDS011;1809;48.470;9.226;2022-09-03T20:02:23;3.30;;;3.10;;
3589;SDS011;1809;48.470;9.226;2022-09-03T20:05:09;4.27;;;3.87;;
3589;SDS011;1809;48.470;9.226;2022-09-03T20:07:56;3.93;;;3.60;;
3589;SDS011;1809;48.470;9.226;2022-09-03T20:10:42;3.80;;;3.57;;
3589;SDS011;1809;48.470;9.226;2022-09-03T20:13:11;3.17;;;2.87;;
3589;SDS011;1809;48.470;9.226;2022-09-03T20:15:51;6.20;;;3.43;;
3589;SDS011;1809;48.470;9.226;2022-09-03T20:21:04;4.27;;;3.40;;
3589;SDS011;1809;48.470;9.226;2022-09-03T20:26:31;2.97;;;2.77;;
3589;SDS011;1809;48.470;9.226;2022-09-03T20:31:40;3.77;;;3.57;;
3589;SDS011;1809;48.470;9.226;2022-09-03T20:34:40;5.90;;;2.63;;
3589;SDS011;1809;48.470;9.226;2022-09-03T20:37:43;3.03;;;2.93;;
3589;SDS011;1809;48.470;9.226;2022-09-03T20:43:18;3.47;;;3.23;;
3589;SDS011;1809;48.470;9.226;2022-09-03T20:48:53;4.13;;;3.83;;
3589;SDS011;1809;48.470;9.226;2022-09-03T20:51:39;4.17;;;3.60;;
3589;SDS011;1809;48.470;9.226;2022-09-03T20:57:12;4.03;;;3.63;;
3589;SDS011;1809;48.470;9.226;2022-09-03T21:05:36;3.03;;;2.83;;
3589;SDS011;1809;48.470;9.226;2022-09-03T21:11:13;2.10;;;2.00;;
3589;SDS011;1809;48.470;9.226;2022-09-03T21:16:41;2.60;;;2.40;;
3589;SDS011;1809;48.470;9.226;2022-09-03T21:19:25;2.70;;;2.60;;
3589;SDS011;1809;48.470;9.226;2022-09-03T21:24:50;2.53;;;2.33;;
3589;SDS011;1809;48.470;9.226;2022-09-03T21:27:20;2.40;;;2.30;;
3589;SDS011;1809;48.470;9.226;2022-09-03T21:30:03;5.60;;;2.33;;
3589;SDS011;1809;48.470;9.226;2022-09-03T21:32:37;3.63;;;2.60;;
3589;SDS011;1809;48.470;9.226;2022-09-03T21:38:03;2.53;;;2.40;;
3589;SDS011;1809;48.470;9.226;2022-09-03T21:40:31;7.60;;;2.83;;
3589;SDS011;1809;48.470;9.226;2022-09-03T21:43:00;3.47;;;3.17;;
3589;SDS011;1809;48.470;9.226;2022-09-03T21:45:45;3.20;;;3.00;;
3589;SDS011;1809;48.470;9.226;2022-09-03T21:48:21;5.70;;;4.27;;
3589;SDS011;1809;48.470;9.226;2022-09-03T21:50:57;3.17;;;2.80;;
3589;SDS011;1809;48.470;9.226;2022-09-03T21:53:40;2.43;;;2.33;;
3589;SDS011;1809;48.470;9.226;2022-09-03T21:56:34;4.30;;;2.70;;
3589;SDS011;1809;48.470;9.226;2022-09-03T22:02:23;3.67;;;3.37;;
3589;SDS011;1809;48.470;9.226;2022-09-03T22:04:49;4.37;;;3.97;;
3589;SDS011;1809;48.470;9.226;2022-09-03T22:09:53;5.80;;;3.50;;
3589;SDS011;1809;48.470;9.226;2022-09-03T22:12:28;6.67;;;3.87;;
3589;SDS011;1809;48.470;9.226;2022-09-03T22:15:01;7.50;;;3.80;;
3589;SDS011;1809;48.470;9.226;2022-09-03T22:17:49;3.43;;;3.20;;